createdAt,value
2017-03-25T00:00:01.579Z,0
2017-03-25T00:00:42.488Z,0
2017-03-25T00:01:23.367Z,0
2017-03-25T00:02:04.244Z,0
2017-03-25T00:02:45.158Z,0
2017-03-25T00:03:25.998Z,0
2017-03-25T00:04:06.885Z,0
2017-03-25T00:04:47.764Z,0
2017-03-25T00:05:28.649Z,0
2017-03-25T00:06:09.531Z,0
2017-03-25T00:06:50.411Z,0
2017-03-25T00:07:31.295Z,0
2017-03-25T00:08:12.173Z,0
2017-03-25T00:08:53.052Z,0
2017-03-25T00:09:33.943Z,0
2017-03-25T00:10:14.825Z,0
2017-03-25T00:10:55.707Z,0
2017-03-25T00:11:36.589Z,0
2017-03-25T00:12:17.474Z,0
2017-03-25T00:12:58.346Z,0
2017-03-25T00:13:39.229Z,0
2017-03-25T00:14:20.112Z,0
2017-03-25T00:15:00.988Z,0
2017-03-25T00:15:41.878Z,0
2017-03-25T00:16:22.747Z,0
2017-03-25T00:17:03.628Z,0
2017-03-25T00:17:44.512Z,0
2017-03-25T00:18:25.397Z,0
2017-03-25T00:19:06.281Z,0
2017-03-25T00:19:47.159Z,0
2017-03-25T00:20:28.037Z,0
2017-03-25T00:21:08.918Z,0
2017-03-25T00:21:49.810Z,0
2017-03-25T00:22:30.682Z,0
2017-03-25T00:23:11.569Z,0
2017-03-25T00:23:52.450Z,0
2017-03-25T00:24:33.335Z,0
2017-03-25T00:25:14.215Z,0
2017-03-25T00:25:55.095Z,0
2017-03-25T00:26:35.976Z,0
2017-03-25T00:27:16.859Z,0
2017-03-25T00:27:57.741Z,0
2017-03-25T00:28:38.612Z,0
2017-03-25T00:29:19.492Z,0
2017-03-25T00:30:00.370Z,0
2017-03-25T00:30:41.257Z,0
2017-03-25T00:31:22.178Z,0
2017-03-25T00:32:03.017Z,0
2017-03-25T00:32:43.903Z,0
2017-03-25T00:33:24.788Z,0
2017-03-25T00:34:05.666Z,0
2017-03-25T00:34:46.550Z,0
2017-03-25T00:35:27.435Z,0
2017-03-25T00:36:08.334Z,0
2017-03-25T00:36:49.209Z,0
2017-03-25T00:37:30.083Z,0
2017-03-25T00:38:11.011Z,0
2017-03-25T00:38:51.874Z,0
2017-03-25T00:39:32.755Z,0
2017-03-25T00:40:13.634Z,0
2017-03-25T00:40:54.553Z,0
2017-03-25T00:41:35.403Z,0
2017-03-25T00:42:16.273Z,0
2017-03-25T00:42:57.151Z,0
2017-03-25T00:43:38.034Z,0
2017-03-25T00:44:18.962Z,0
2017-03-25T00:44:59.812Z,0
2017-03-25T00:45:40.688Z,0
2017-03-25T00:46:21.576Z,0
2017-03-25T00:47:02.469Z,0
2017-03-25T00:47:43.351Z,0
2017-03-25T00:48:24.230Z,0
2017-03-25T00:49:05.127Z,0
2017-03-25T00:49:46.053Z,0
2017-03-25T00:50:26.898Z,0
2017-03-25T00:51:07.788Z,0
2017-03-25T00:51:48.675Z,0
2017-03-25T00:52:29.550Z,0
2017-03-25T00:53:10.435Z,0
2017-03-25T00:53:51.319Z,0
2017-03-25T00:54:32.209Z,0
2017-03-25T00:55:13.088Z,0
2017-03-25T00:55:53.969Z,0
2017-03-25T00:56:34.846Z,0
2017-03-25T00:57:15.737Z,0
2017-03-25T00:57:56.614Z,0
2017-03-25T00:58:37.494Z,0
2017-03-25T00:59:18.379Z,0
2017-03-25T00:59:59.264Z,0
2017-03-25T01:00:40.144Z,0
2017-03-25T01:01:21.025Z,0
2017-03-25T01:02:01.913Z,0
2017-03-25T01:02:42.796Z,0
2017-03-25T01:03:23.680Z,0
2017-03-25T01:04:04.559Z,0
2017-03-25T01:04:45.441Z,0
2017-03-25T01:05:26.326Z,0
2017-03-25T01:06:07.210Z,0
2017-03-25T01:06:48.088Z,0
2017-03-25T01:07:28.966Z,0
2017-03-25T01:08:09.847Z,0
2017-03-25T01:08:50.727Z,0
2017-03-25T01:09:31.606Z,0
2017-03-25T01:10:12.482Z,0
2017-03-25T01:10:53.371Z,0
2017-03-25T01:11:34.254Z,0
2017-03-25T01:12:15.132Z,0
2017-03-25T01:12:56.014Z,0
2017-03-25T01:13:36.898Z,0
2017-03-25T01:14:17.774Z,0
2017-03-25T01:14:58.665Z,0
2017-03-25T01:15:39.545Z,0
2017-03-25T01:16:20.423Z,0
2017-03-25T01:17:01.318Z,0
2017-03-25T01:17:42.234Z,0
2017-03-25T01:18:23.069Z,0
2017-03-25T01:19:03.946Z,0
2017-03-25T01:19:44.829Z,0
2017-03-25T01:20:25.714Z,0
2017-03-25T01:21:06.596Z,0
2017-03-25T01:21:47.475Z,0
2017-03-25T01:22:28.359Z,0
2017-03-25T01:23:09.249Z,0
2017-03-25T01:23:50.126Z,0
2017-03-25T01:24:31.008Z,0
2017-03-25T01:25:11.889Z,0
2017-03-25T01:25:52.773Z,0
2017-03-25T01:26:33.655Z,0
2017-03-25T01:27:14.534Z,0
2017-03-25T01:27:55.417Z,0
2017-03-25T01:28:36.301Z,0
2017-03-25T01:29:17.171Z,0
2017-03-25T01:29:58.050Z,0
2017-03-25T01:30:38.926Z,0
2017-03-25T01:31:19.801Z,0
2017-03-25T01:32:00.681Z,0
2017-03-25T01:32:41.565Z,0
2017-03-25T01:33:22.443Z,0
2017-03-25T01:34:03.326Z,0
2017-03-25T01:34:44.211Z,0
2017-03-25T01:35:25.093Z,0
2017-03-25T01:36:05.976Z,0
2017-03-25T01:36:46.857Z,0
2017-03-25T01:37:27.739Z,0
2017-03-25T01:38:08.619Z,0
2017-03-25T01:38:49.498Z,0
2017-03-25T01:39:30.378Z,0
2017-03-25T01:40:11.254Z,0
2017-03-25T01:40:52.140Z,0
2017-03-25T01:41:33.031Z,0
2017-03-25T01:42:13.906Z,0
2017-03-25T01:42:54.786Z,0
2017-03-25T01:43:35.668Z,0
2017-03-25T01:44:16.550Z,0
2017-03-25T01:44:57.431Z,0
2017-03-25T01:45:38.308Z,0
2017-03-25T01:46:19.189Z,0
2017-03-25T01:47:00.069Z,0
2017-03-25T01:47:40.953Z,0
2017-03-25T01:48:21.830Z,0
2017-03-25T01:49:02.709Z,0
2017-03-25T01:49:43.605Z,0
2017-03-25T01:50:24.490Z,0
2017-03-25T01:51:05.364Z,0
2017-03-25T01:51:46.243Z,0
2017-03-25T01:52:27.128Z,0
2017-03-25T01:53:08.013Z,0
2017-03-25T01:53:48.897Z,0
2017-03-25T01:54:29.776Z,0
2017-03-25T01:55:10.659Z,0
2017-03-25T01:55:51.541Z,0
2017-03-25T01:56:32.417Z,0
2017-03-25T01:57:13.304Z,0
2017-03-25T01:57:54.178Z,0
2017-03-25T01:58:35.065Z,0
2017-03-25T01:59:15.948Z,0
2017-03-25T01:59:56.828Z,0
2017-03-25T02:00:37.707Z,0
2017-03-25T02:01:18.571Z,0
2017-03-25T02:01:59.454Z,0
2017-03-25T02:02:40.343Z,0
2017-03-25T02:03:21.222Z,0
2017-03-25T02:04:02.106Z,0
2017-03-25T02:04:42.990Z,0
2017-03-25T02:05:23.875Z,0
2017-03-25T02:06:04.759Z,0
2017-03-25T02:06:45.635Z,0
2017-03-25T02:07:26.516Z,0
2017-03-25T02:08:07.404Z,0
2017-03-25T02:08:48.277Z,0
2017-03-25T02:09:29.159Z,0
2017-03-25T02:10:10.040Z,0
2017-03-25T02:10:50.926Z,0
2017-03-25T02:11:31.809Z,0
2017-03-25T02:12:12.691Z,0
2017-03-25T02:12:53.578Z,0
2017-03-25T02:13:34.459Z,0
2017-03-25T02:14:15.339Z,0
2017-03-25T02:14:56.219Z,0
2017-03-25T02:15:37.112Z,0
2017-03-25T02:16:17.990Z,0
2017-03-25T02:16:58.873Z,0
2017-03-25T02:17:39.756Z,0
2017-03-25T02:18:20.643Z,0
2017-03-25T02:19:01.519Z,0
2017-03-25T02:19:42.402Z,0
2017-03-25T02:20:23.286Z,0
2017-03-25T02:21:04.178Z,0
2017-03-25T02:21:45.054Z,0
2017-03-25T02:22:25.937Z,0
2017-03-25T02:23:06.818Z,0
2017-03-25T02:23:47.703Z,0
2017-03-25T02:24:28.586Z,0
2017-03-25T02:25:09.470Z,0
2017-03-25T02:25:50.355Z,0
2017-03-25T02:26:31.237Z,0
2017-03-25T02:27:12.120Z,0
2017-03-25T02:27:53.000Z,0
2017-03-25T02:28:33.917Z,0
2017-03-25T02:29:14.771Z,0
2017-03-25T02:29:55.653Z,0
2017-03-25T02:30:36.535Z,0
2017-03-25T02:31:17.414Z,0
2017-03-25T02:31:58.291Z,0
2017-03-25T02:32:39.167Z,0
2017-03-25T02:33:20.053Z,0
2017-03-25T02:34:00.941Z,0
2017-03-25T02:34:41.826Z,0
2017-03-25T02:35:22.698Z,0
2017-03-25T02:36:03.580Z,0
2017-03-25T02:36:44.453Z,0
2017-03-25T02:37:25.323Z,0
2017-03-25T02:38:06.205Z,0
2017-03-25T02:38:47.091Z,0
2017-03-25T02:39:27.974Z,0
2017-03-25T02:40:08.857Z,0
2017-03-25T02:40:49.735Z,0
2017-03-25T02:41:30.617Z,0
2017-03-25T02:42:11.504Z,0
2017-03-25T02:42:52.384Z,0
2017-03-25T02:43:33.265Z,0
2017-03-25T02:44:14.145Z,0
2017-03-25T02:44:55.028Z,0
2017-03-25T02:45:35.911Z,0
2017-03-25T02:46:16.793Z,0
2017-03-25T02:46:57.675Z,0
2017-03-25T02:47:38.555Z,0
2017-03-25T02:48:19.433Z,0
2017-03-25T02:49:00.314Z,0
2017-03-25T02:49:41.194Z,0
2017-03-25T02:50:22.077Z,0
2017-03-25T02:51:02.964Z,0
2017-03-25T02:51:43.843Z,0
2017-03-25T02:52:24.728Z,0
2017-03-25T02:53:05.615Z,0
2017-03-25T02:53:46.501Z,0
2017-03-25T02:54:27.382Z,0
2017-03-25T02:55:08.263Z,0
2017-03-25T02:55:49.146Z,0
2017-03-25T02:56:30.021Z,0
2017-03-25T02:57:10.904Z,0
2017-03-25T02:57:51.786Z,0
2017-03-25T02:58:32.667Z,0
2017-03-25T02:59:13.601Z,0
2017-03-25T02:59:54.437Z,0
2017-03-25T03:00:35.323Z,0
2017-03-25T03:01:16.203Z,0
2017-03-25T03:01:57.088Z,0
2017-03-25T03:02:37.970Z,0
2017-03-25T03:03:18.851Z,0
2017-03-25T03:03:59.732Z,0
2017-03-25T03:04:40.613Z,0
2017-03-25T03:05:21.501Z,0
2017-03-25T03:06:02.373Z,0
2017-03-25T03:06:43.265Z,0
2017-03-25T03:07:24.148Z,0
2017-03-25T03:08:05.029Z,0
2017-03-25T03:08:45.908Z,0
2017-03-25T03:09:26.791Z,0
2017-03-25T03:10:07.671Z,0
2017-03-25T03:10:48.554Z,0
2017-03-25T03:11:29.427Z,0
2017-03-25T03:12:10.299Z,0
2017-03-25T03:12:51.181Z,0
2017-03-25T03:13:32.065Z,0
2017-03-25T03:14:12.945Z,0
2017-03-25T03:14:53.828Z,0
2017-03-25T03:15:34.711Z,0
2017-03-25T03:16:15.596Z,0
2017-03-25T03:16:56.479Z,0
2017-03-25T03:17:37.359Z,0
2017-03-25T03:18:18.237Z,0
2017-03-25T03:18:59.117Z,0
2017-03-25T03:19:39.991Z,0
2017-03-25T03:20:20.875Z,0
2017-03-25T03:21:01.754Z,0
2017-03-25T03:21:42.633Z,0
2017-03-25T03:22:23.514Z,0
2017-03-25T03:23:04.398Z,0
2017-03-25T03:23:45.283Z,0
2017-03-25T03:24:26.166Z,0
2017-03-25T03:25:07.047Z,0
2017-03-25T03:25:47.935Z,0
2017-03-25T03:26:28.817Z,0
2017-03-25T03:27:09.718Z,0
2017-03-25T03:27:50.598Z,0
2017-03-25T03:28:31.476Z,0
2017-03-25T03:29:12.363Z,0
2017-03-25T03:29:53.244Z,0
2017-03-25T03:30:34.125Z,0
2017-03-25T03:31:15.005Z,0
2017-03-25T03:31:55.888Z,0
2017-03-25T03:32:36.771Z,0
2017-03-25T03:33:17.653Z,0
2017-03-25T03:33:58.537Z,0
2017-03-25T03:34:39.419Z,0
2017-03-25T03:35:20.296Z,0
2017-03-25T03:36:01.189Z,0
2017-03-25T03:36:42.072Z,0
2017-03-25T03:37:22.963Z,0
2017-03-25T03:38:03.842Z,0
2017-03-25T03:38:44.743Z,0
2017-03-25T03:39:25.607Z,0
2017-03-25T03:40:06.486Z,0
2017-03-25T03:40:47.369Z,0
2017-03-25T03:41:28.249Z,0
2017-03-25T03:42:09.133Z,0
2017-03-25T03:42:50.015Z,0
2017-03-25T03:43:30.897Z,0
2017-03-25T03:44:11.790Z,0
2017-03-25T03:44:52.672Z,0
2017-03-25T03:45:33.552Z,0
2017-03-25T03:46:14.431Z,0
2017-03-25T03:46:55.319Z,0
2017-03-25T03:47:36.200Z,0
2017-03-25T03:48:17.082Z,0
2017-03-25T03:48:57.968Z,0
2017-03-25T03:49:38.847Z,0
2017-03-25T03:50:19.733Z,0
2017-03-25T03:51:00.616Z,0
2017-03-25T03:51:41.501Z,0
2017-03-25T03:52:22.387Z,0
2017-03-25T03:53:03.313Z,0
2017-03-25T03:53:44.150Z,0
2017-03-25T03:54:25.029Z,0
2017-03-25T03:55:05.914Z,0
2017-03-25T03:55:46.802Z,0
2017-03-25T03:56:27.685Z,0
2017-03-25T03:57:08.563Z,0
2017-03-25T03:57:49.449Z,0
2017-03-25T03:58:30.335Z,0
2017-03-25T03:59:11.216Z,0
2017-03-25T03:59:52.100Z,0
2017-03-25T04:00:32.980Z,0
2017-03-25T04:01:13.867Z,0
2017-03-25T04:01:54.745Z,0
2017-03-25T04:02:35.623Z,0
2017-03-25T04:03:16.506Z,0
2017-03-25T04:03:57.391Z,0
2017-03-25T04:04:38.274Z,0
2017-03-25T04:05:19.149Z,0
2017-03-25T04:06:00.026Z,0
2017-03-25T04:06:40.911Z,0
2017-03-25T04:07:21.795Z,0
2017-03-25T04:08:02.675Z,0
2017-03-25T04:08:43.561Z,0
2017-03-25T04:09:24.443Z,0
2017-03-25T04:10:05.336Z,0
2017-03-25T04:10:46.210Z,0
2017-03-25T04:11:27.086Z,0
2017-03-25T04:12:07.964Z,0
2017-03-25T04:12:48.849Z,0
2017-03-25T04:13:29.735Z,0
2017-03-25T04:14:10.623Z,0
2017-03-25T04:14:51.505Z,0
2017-03-25T04:15:32.392Z,0
2017-03-25T04:16:13.273Z,0
2017-03-25T04:16:54.154Z,0
2017-03-25T04:17:35.043Z,0
2017-03-25T04:18:15.922Z,0
2017-03-25T04:18:56.802Z,0
2017-03-25T04:19:37.679Z,0
2017-03-25T04:20:18.559Z,0
2017-03-25T04:20:59.446Z,0
2017-03-25T04:21:40.335Z,0
2017-03-25T04:22:21.213Z,0
2017-03-25T04:23:02.100Z,0
2017-03-25T04:23:42.975Z,0
2017-03-25T04:24:23.854Z,0
2017-03-25T04:25:04.734Z,0
2017-03-25T04:25:45.612Z,0
2017-03-25T04:26:26.497Z,0
2017-03-25T04:27:07.379Z,4
2017-03-25T04:27:48.266Z,4
2017-03-25T04:28:29.194Z,4
2017-03-25T04:29:10.027Z,0
2017-03-25T04:29:50.913Z,0
2017-03-25T04:30:31.793Z,0
2017-03-25T04:31:12.675Z,4
2017-03-25T04:31:53.565Z,4
2017-03-25T04:32:34.447Z,4
2017-03-25T04:33:15.330Z,4
2017-03-25T04:33:56.209Z,4
2017-03-25T04:34:37.084Z,4
2017-03-25T04:35:17.965Z,8
2017-03-25T04:35:58.842Z,4
2017-03-25T04:36:39.726Z,8
2017-03-25T04:37:20.606Z,8
2017-03-25T04:38:01.504Z,8
2017-03-25T04:38:42.390Z,8
2017-03-25T04:39:23.265Z,12
2017-03-25T04:40:04.139Z,12
2017-03-25T04:40:45.027Z,12
2017-03-25T04:41:25.909Z,16
2017-03-25T04:42:06.790Z,16
2017-03-25T04:42:47.667Z,16
2017-03-25T04:43:28.553Z,20
2017-03-25T04:44:09.439Z,20
2017-03-25T04:44:50.320Z,24
2017-03-25T04:45:31.195Z,28
2017-03-25T04:46:12.071Z,28
2017-03-25T04:46:52.957Z,32
2017-03-25T04:47:33.838Z,36
2017-03-25T04:48:14.719Z,36
2017-03-25T04:48:55.597Z,44
2017-03-25T04:49:36.482Z,44
2017-03-25T04:50:17.371Z,48
2017-03-25T04:50:58.249Z,52
2017-03-25T04:51:39.125Z,52
2017-03-25T04:52:20.014Z,56
2017-03-25T04:53:00.913Z,64
2017-03-25T04:53:41.793Z,64
2017-03-25T04:54:22.670Z,68
2017-03-25T04:55:03.550Z,72
2017-03-25T04:55:44.432Z,72
2017-03-25T04:56:25.314Z,76
2017-03-25T04:57:06.186Z,80
2017-03-25T04:57:47.064Z,84
2017-03-25T04:58:27.943Z,92
2017-03-25T04:59:08.831Z,96
2017-03-25T04:59:49.711Z,104
2017-03-25T05:00:30.588Z,108
2017-03-25T05:01:11.474Z,116
2017-03-25T05:01:52.358Z,124
2017-03-25T05:02:33.248Z,132
2017-03-25T05:03:14.120Z,140
2017-03-25T05:03:55.001Z,152
2017-03-25T05:04:35.887Z,160
2017-03-25T05:05:16.768Z,172
2017-03-25T05:05:57.654Z,184
2017-03-25T05:06:38.533Z,192
2017-03-25T05:07:19.420Z,204
2017-03-25T05:08:00.308Z,216
2017-03-25T05:08:41.188Z,228
2017-03-25T05:09:22.067Z,244
2017-03-25T05:10:02.959Z,256
2017-03-25T05:10:43.837Z,268
2017-03-25T05:11:24.705Z,284
2017-03-25T05:12:05.587Z,296
2017-03-25T05:12:46.479Z,312
2017-03-25T05:13:27.358Z,332
2017-03-25T05:14:08.235Z,344
2017-03-25T05:14:49.113Z,360
2017-03-25T05:15:29.994Z,376
2017-03-25T05:16:10.876Z,392
2017-03-25T05:16:51.754Z,408
2017-03-25T05:17:32.633Z,424
2017-03-25T05:18:13.509Z,440
2017-03-25T05:18:54.388Z,456
2017-03-25T05:19:35.272Z,472
2017-03-25T05:20:16.154Z,492
2017-03-25T05:20:57.034Z,508
2017-03-25T05:21:37.916Z,524
2017-03-25T05:22:18.805Z,544
2017-03-25T05:22:59.687Z,560
2017-03-25T05:23:40.563Z,572
2017-03-25T05:24:21.441Z,592
2017-03-25T05:25:02.331Z,608
2017-03-25T05:25:43.213Z,624
2017-03-25T05:26:24.094Z,640
2017-03-25T05:27:04.993Z,656
2017-03-25T05:29:07.703Z,700
2017-03-25T05:29:48.580Z,716
2017-03-25T05:30:29.456Z,728
2017-03-25T05:31:10.336Z,740
2017-03-25T05:31:51.219Z,752
2017-03-25T05:32:32.101Z,764
2017-03-25T05:33:12.971Z,776
2017-03-25T05:33:53.848Z,792
2017-03-25T05:34:34.731Z,812
2017-03-25T05:35:15.613Z,828
2017-03-25T05:35:56.498Z,848
2017-03-25T05:36:37.375Z,864
2017-03-25T05:37:18.261Z,884
2017-03-25T05:37:59.154Z,896
2017-03-25T05:38:40.032Z,912
2017-03-25T05:39:20.910Z,920
2017-03-25T05:40:01.791Z,936
2017-03-25T05:40:42.678Z,944
2017-03-25T05:41:23.560Z,956
2017-03-25T05:42:04.436Z,964
2017-03-25T05:42:45.309Z,976
2017-03-25T05:43:26.189Z,992
2017-03-25T05:44:07.073Z,1004
2017-03-25T05:44:47.951Z,1016
2017-03-25T05:45:28.828Z,1028
2017-03-25T05:46:09.699Z,1048
2017-03-25T05:46:50.581Z,1064
2017-03-25T05:47:31.463Z,1076
2017-03-25T05:48:12.344Z,1100
2017-03-25T05:48:53.223Z,1116
2017-03-25T05:49:34.099Z,1140
2017-03-25T05:50:14.979Z,1164
2017-03-25T05:50:55.859Z,1192
2017-03-25T05:51:36.735Z,1228
2017-03-25T05:52:17.616Z,1272
2017-03-25T05:52:58.500Z,1324
2017-03-25T05:53:39.384Z,1380
2017-03-25T05:54:20.263Z,1444
2017-03-25T05:55:01.142Z,1512
2017-03-25T05:55:42.033Z,1576
2017-03-25T05:56:22.975Z,1648
2017-03-25T05:57:03.813Z,1720
2017-03-25T05:57:44.690Z,1796
2017-03-25T05:58:25.570Z,1868
2017-03-25T05:59:06.456Z,1940
2017-03-25T05:59:47.339Z,2008
2017-03-25T06:00:28.220Z,2076
2017-03-25T06:01:09.102Z,2144
2017-03-25T06:01:49.986Z,2208
2017-03-25T06:02:30.866Z,2268
2017-03-25T06:03:11.741Z,2328
2017-03-25T06:03:52.631Z,2380
2017-03-25T06:04:33.516Z,2436
2017-03-25T06:05:14.395Z,2492
2017-03-25T06:05:55.264Z,2544
2017-03-25T06:06:36.146Z,2592
2017-03-25T06:07:17.025Z,2632
2017-03-25T06:07:57.928Z,2660
2017-03-25T06:08:38.831Z,2692
2017-03-25T06:09:19.678Z,2716
2017-03-25T06:10:00.555Z,2732
2017-03-25T06:10:41.440Z,2744
2017-03-25T06:11:22.325Z,2744
2017-03-25T06:12:03.202Z,2744
2017-03-25T06:12:44.075Z,2736
2017-03-25T06:13:24.958Z,2732
2017-03-25T06:14:05.841Z,2724
2017-03-25T06:14:46.723Z,2720
2017-03-25T06:15:27.601Z,2720
2017-03-25T06:16:08.482Z,2716
2017-03-25T06:16:49.364Z,2720
2017-03-25T06:17:30.244Z,2732
2017-03-25T06:18:11.124Z,2752
2017-03-25T06:18:52.003Z,2768
2017-03-25T06:19:32.897Z,2788
2017-03-25T06:20:13.781Z,2808
2017-03-25T06:20:54.646Z,2852
2017-03-25T06:21:35.526Z,2904
2017-03-25T06:22:16.414Z,2964
2017-03-25T06:22:57.295Z,3036
2017-03-25T06:23:38.174Z,3120
2017-03-25T06:24:19.041Z,3216
2017-03-25T06:24:59.916Z,3332
2017-03-25T06:25:40.798Z,3452
2017-03-25T06:26:21.691Z,3580
2017-03-25T06:27:02.573Z,3708
2017-03-25T06:27:43.447Z,3848
2017-03-25T06:28:24.333Z,3980
2017-03-25T06:29:05.219Z,4108
2017-03-25T06:29:46.093Z,4228
2017-03-25T06:30:26.965Z,4328
2017-03-25T06:31:07.841Z,4408
2017-03-25T06:31:48.724Z,4472
2017-03-25T06:32:29.609Z,4504
2017-03-25T06:33:10.487Z,4532
2017-03-25T06:33:51.382Z,4552
2017-03-25T06:34:32.264Z,4568
2017-03-25T06:35:14.720Z,4584
2017-03-25T06:35:55.600Z,4612
2017-03-25T06:36:36.481Z,4652
2017-03-25T06:37:17.355Z,4716
2017-03-25T06:37:58.232Z,4792
2017-03-25T06:38:39.113Z,4888
2017-03-25T06:39:19.997Z,4976
2017-03-25T06:40:00.886Z,5072
2017-03-25T06:40:41.762Z,5152
2017-03-25T06:41:22.639Z,5216
2017-03-25T06:42:03.513Z,5276
2017-03-25T06:42:44.395Z,5316
2017-03-25T06:43:25.280Z,5364
2017-03-25T06:44:06.158Z,5404
2017-03-25T06:44:47.038Z,5444
2017-03-25T06:45:27.923Z,5472
2017-03-25T06:46:08.815Z,5492
2017-03-25T06:46:49.692Z,5516
2017-03-25T06:47:30.570Z,5540
2017-03-25T06:48:11.457Z,5572
2017-03-25T06:48:52.338Z,5604
2017-03-25T06:49:33.217Z,5640
2017-03-25T06:50:14.097Z,5688
2017-03-25T06:50:54.972Z,5732
2017-03-25T06:51:35.852Z,5796
2017-03-25T06:52:16.737Z,5872
2017-03-25T06:52:57.619Z,5956
2017-03-25T06:53:38.499Z,6020
2017-03-25T06:54:19.383Z,6080
2017-03-25T06:55:00.273Z,6132
2017-03-25T06:55:41.156Z,6188
2017-03-25T06:56:22.033Z,6216
2017-03-25T06:57:02.916Z,6204
2017-03-25T06:57:43.801Z,6180
2017-03-25T06:58:24.684Z,6156
2017-03-25T06:59:05.566Z,6140
2017-03-25T06:59:46.440Z,6136
2017-03-25T07:00:27.316Z,6120
2017-03-25T07:01:08.208Z,6100
2017-03-25T07:01:49.075Z,6092
2017-03-25T07:02:29.973Z,6108
2017-03-25T07:03:10.865Z,6152
2017-03-25T07:03:51.747Z,6204
2017-03-25T07:04:32.631Z,6244
2017-03-25T07:05:13.513Z,6296
2017-03-25T07:05:54.402Z,6364
2017-03-25T07:06:35.281Z,6444
2017-03-25T07:07:16.162Z,6508
2017-03-25T07:07:57.040Z,6584
2017-03-25T07:08:37.918Z,6648
2017-03-25T07:09:18.793Z,6724
2017-03-25T07:09:59.697Z,6832
2017-03-25T07:10:40.567Z,6944
2017-03-25T07:11:21.450Z,7056
2017-03-25T07:12:02.341Z,7180
2017-03-25T07:12:43.235Z,7284
2017-03-25T07:13:24.116Z,7388
2017-03-25T07:14:05.004Z,7504
2017-03-25T07:14:45.886Z,7636
2017-03-25T07:15:26.767Z,7780
2017-03-25T07:16:07.649Z,7956
2017-03-25T07:16:48.529Z,8088
2017-03-25T07:17:29.412Z,8156
2017-03-25T07:18:10.292Z,8248
2017-03-25T07:18:51.171Z,8384
2017-03-25T07:19:32.057Z,8556
2017-03-25T07:20:12.945Z,8764
2017-03-25T07:20:53.816Z,8816
2017-03-25T07:21:34.690Z,8840
2017-03-25T07:22:15.573Z,8908
2017-03-25T07:22:56.469Z,8948
2017-03-25T07:23:37.345Z,8996
2017-03-25T07:24:18.227Z,9056
2017-03-25T07:24:59.108Z,9092
2017-03-25T07:25:39.983Z,9072
2017-03-25T07:26:20.865Z,9072
2017-03-25T07:27:01.755Z,9108
2017-03-25T07:27:42.640Z,9164
2017-03-25T07:28:23.526Z,9216
2017-03-25T07:29:04.406Z,9232
2017-03-25T07:29:45.287Z,9180
2017-03-25T07:30:26.173Z,9072
2017-03-25T07:31:07.057Z,8940
2017-03-25T07:31:47.942Z,8792
2017-03-25T07:32:28.819Z,8668
2017-03-25T07:33:09.706Z,8580
2017-03-25T07:33:50.592Z,8456
2017-03-25T07:34:31.477Z,8368
2017-03-25T07:35:12.362Z,8272
2017-03-25T07:35:53.246Z,8156
2017-03-25T07:36:34.127Z,8056
2017-03-25T07:37:15.010Z,7976
2017-03-25T07:37:57.727Z,7836
2017-03-25T07:38:38.613Z,7728
2017-03-25T07:39:19.497Z,7652
2017-03-25T07:40:00.377Z,7584
2017-03-25T07:40:41.260Z,7496
2017-03-25T07:41:22.146Z,7388
2017-03-25T07:42:03.030Z,7312
2017-03-25T07:42:43.913Z,7248
2017-03-25T07:43:24.794Z,7224
2017-03-25T07:44:05.672Z,7196
2017-03-25T07:44:46.550Z,7204
2017-03-25T07:45:27.433Z,7216
2017-03-25T07:46:08.312Z,7244
2017-03-25T07:46:49.190Z,7300
2017-03-25T07:47:30.074Z,7356
2017-03-25T07:48:10.959Z,7392
2017-03-25T07:48:51.840Z,7456
2017-03-25T07:49:32.720Z,7492
2017-03-25T07:50:13.610Z,7544
2017-03-25T07:50:54.536Z,7616
2017-03-25T07:51:35.380Z,7696
2017-03-25T07:52:16.264Z,7776
2017-03-25T07:52:57.144Z,7888
2017-03-25T07:53:38.031Z,8004
2017-03-25T07:54:18.912Z,8160
2017-03-25T07:54:59.782Z,8316
2017-03-25T07:55:40.653Z,8496
2017-03-25T07:56:21.540Z,8680
2017-03-25T07:57:02.423Z,8872
2017-03-25T07:57:43.310Z,9040
2017-03-25T07:58:24.186Z,9208
2017-03-25T07:59:05.075Z,9360
2017-03-25T07:59:45.947Z,9544
2017-03-25T08:00:26.829Z,9716
2017-03-25T08:01:07.713Z,9876
2017-03-25T08:01:48.594Z,10024
2017-03-25T08:02:29.466Z,10152
2017-03-25T08:03:10.349Z,10272
2017-03-25T08:03:51.230Z,10320
2017-03-25T08:04:32.109Z,10428
2017-03-25T08:05:12.995Z,10572
2017-03-25T08:05:53.882Z,10604
2017-03-25T08:06:34.762Z,10512
2017-03-25T08:07:15.637Z,10424
2017-03-25T08:07:56.528Z,10360
2017-03-25T08:08:37.392Z,10136
2017-03-25T08:09:18.278Z,9964
2017-03-25T08:09:59.154Z,9808
2017-03-25T08:10:40.036Z,9644
2017-03-25T08:11:20.919Z,9576
2017-03-25T08:12:01.811Z,9516
2017-03-25T08:12:42.714Z,9340
2017-03-25T08:13:23.599Z,9248
2017-03-25T08:14:04.487Z,8968
2017-03-25T08:14:45.368Z,8744
2017-03-25T08:15:26.249Z,8412
2017-03-25T08:16:07.128Z,8128
2017-03-25T08:16:48.014Z,7892
2017-03-25T08:17:28.896Z,7624
2017-03-25T08:18:09.805Z,7396
2017-03-25T08:18:50.691Z,7328
2017-03-25T08:19:31.571Z,7236
2017-03-25T08:20:12.476Z,7156
2017-03-25T08:20:53.359Z,7108
2017-03-25T08:21:34.244Z,7204
2017-03-25T08:22:15.127Z,7320
2017-03-25T08:22:56.011Z,7568
2017-03-25T08:23:36.881Z,7888
2017-03-25T08:24:17.766Z,8244
2017-03-25T08:24:58.637Z,8628
2017-03-25T08:25:39.523Z,9284
2017-03-25T08:26:20.412Z,9400
2017-03-25T08:27:01.297Z,9788
2017-03-25T08:27:42.176Z,9888
2017-03-25T08:28:23.058Z,10412
2017-03-25T08:29:03.934Z,9812
2017-03-25T08:29:44.829Z,9816
2017-03-25T08:30:25.700Z,9464
2017-03-25T08:31:06.591Z,8804
2017-03-25T08:31:47.475Z,8048
2017-03-25T08:32:28.366Z,7320
2017-03-25T08:33:09.232Z,6996
2017-03-25T08:33:50.114Z,6812
2017-03-25T08:34:30.999Z,6712
2017-03-25T08:35:11.881Z,6536
2017-03-25T08:35:52.761Z,6404
2017-03-25T08:36:33.628Z,6440
2017-03-25T08:37:14.505Z,6120
2017-03-25T08:37:55.387Z,6112
2017-03-25T08:40:04.381Z,6500
2017-03-25T08:40:45.280Z,6988
2017-03-25T08:41:26.166Z,7260
2017-03-25T08:42:07.047Z,7724
2017-03-25T08:42:47.926Z,8328
2017-03-25T08:43:28.811Z,8732
2017-03-25T08:44:09.702Z,9084
2017-03-25T08:44:50.608Z,9620
2017-03-25T08:45:31.488Z,10024
2017-03-25T08:46:12.379Z,10432
2017-03-25T08:46:53.272Z,10264
2017-03-25T08:47:34.157Z,10132
2017-03-25T08:48:15.041Z,9620
2017-03-25T08:48:55.922Z,9352
2017-03-25T08:49:36.798Z,9024
2017-03-25T08:50:17.672Z,8752
2017-03-25T08:50:58.576Z,8500
2017-03-25T08:51:39.444Z,8304
2017-03-25T08:52:20.317Z,8332
2017-03-25T08:53:01.198Z,8528
2017-03-25T08:53:42.080Z,8272
2017-03-25T08:54:22.965Z,8144
2017-03-25T08:55:03.848Z,8176
2017-03-25T08:55:44.731Z,8152
2017-03-25T08:56:25.632Z,8096
2017-03-25T08:57:06.514Z,8148
2017-03-25T08:57:47.397Z,8176
2017-03-25T08:58:28.279Z,8544
2017-03-25T08:59:09.160Z,9112
2017-03-25T08:59:50.044Z,9536
2017-03-25T09:00:30.922Z,10128
2017-03-25T09:01:11.801Z,10720
2017-03-25T09:01:52.686Z,11008
2017-03-25T09:02:33.606Z,11284
2017-03-25T09:03:14.453Z,11376
2017-03-25T09:03:55.334Z,11152
2017-03-25T09:04:36.219Z,10764
2017-03-25T09:05:17.093Z,10236
2017-03-25T09:05:57.971Z,9836
2017-03-25T09:06:38.849Z,9496
2017-03-25T09:07:19.739Z,9428
2017-03-25T09:08:00.631Z,9700
2017-03-25T09:08:41.517Z,9948
2017-03-25T09:09:22.397Z,10296
2017-03-25T09:10:03.287Z,10872
2017-03-25T09:10:44.168Z,11452
2017-03-25T09:11:25.048Z,12048
2017-03-25T09:12:05.967Z,12532
2017-03-25T09:12:46.819Z,12912
2017-03-25T09:13:27.702Z,13036
2017-03-25T09:14:08.586Z,13616
2017-03-25T09:14:49.468Z,13352
2017-03-25T09:15:30.350Z,13576
2017-03-25T09:16:11.232Z,14212
2017-03-25T09:16:52.124Z,14560
2017-03-25T09:17:33.002Z,15380
2017-03-25T09:18:13.903Z,14576
2017-03-25T09:18:54.786Z,14388
2017-03-25T09:19:35.674Z,13212
2017-03-25T09:20:16.554Z,12940
2017-03-25T09:20:57.441Z,12184
2017-03-25T09:21:38.331Z,12004
2017-03-25T09:22:19.207Z,12220
2017-03-25T09:23:00.123Z,12752
2017-03-25T09:23:40.981Z,13272
2017-03-25T09:24:21.860Z,13996
2017-03-25T09:25:02.747Z,15316
2017-03-25T09:25:43.639Z,16512
2017-03-25T09:26:24.523Z,17248
2017-03-25T09:27:05.404Z,23136
2017-03-25T09:27:46.291Z,20992
2017-03-25T09:28:27.179Z,22688
2017-03-25T09:29:08.068Z,31584
2017-03-25T09:29:48.948Z,23456
2017-03-25T09:30:29.832Z,23264
2017-03-25T09:31:10.761Z,20480
2017-03-25T09:31:51.604Z,18272
2017-03-25T09:32:32.480Z,19392
2017-03-25T09:33:13.372Z,17472
2017-03-25T09:33:54.261Z,18880
2017-03-25T09:34:35.136Z,19136
2017-03-25T09:35:16.030Z,19904
2017-03-25T09:35:56.921Z,20160